Aviation Digital Data Service (ADDS)

Output produced by METARs form (0857 UTC 18 November 2018)
found at http://www.aviationweather.gov/metar/data/
 
METAR text: RJBE 180800Z 28007KT CAVOK 17/06 Q1016
Conditions at: RJBE (KOBE , JP) observed 0800 UTC 18 November 2018
Temperature: 17.0°C (63°F)
Dewpoint: 6.0°C (43°F) [RH = 48%]
Pressure (altimeter): 30.00 inches Hg (1016.0 mb)
Winds: from the W (280 degrees) at 8 MPH (7 knots; 3.6 m/s)
Visibility: 6 or more miles (10+ km)
Ceiling: ceiling and visibility are OK
Clouds: unknown
Weather: no significant weather observed at this time